sensor_id;sensor_type;location;lat;lon;timestamp;temperature;humidity
3846;DHT22;1938;50.812;7.738;2022-12-07T00:01:47;2.40;99.90
3846;DHT22;1938;50.812;7.738;2022-12-07T00:04:16;2.40;99.90
3846;DHT22;1938;50.812;7.738;2022-12-07T00:06:44;2.40;99.90
3846;DHT22;1938;50.812;7.738;2022-12-07T00:09:14;2.40;99.90
3846;DHT22;1938;50.812;7.738;2022-12-07T00:11:40;2.40;99.90
3846;DHT22;1938;50.812;7.738;2022-12-07T00:14:09;2.40;99.90
3846;DHT22;1938;50.812;7.738;2022-12-07T00:16:35;2.40;99.90
3846;DHT22;1938;50.812;7.738;2022-12-07T00:19:02;2.40;99.90
3846;DHT22;1938;50.812;7.738;2022-12-07T00:21:31;2.40;99.90
3846;DHT22;1938;50.812;7.738;2022-12-07T00:23:57;2.40;99.90
3846;DHT22;1938;50.812;7.738;2022-12-07T00:26:28;2.40;99.90
3846;DHT22;1938;50.812;7.738;2022-12-07T00:28:57;2.30;99.90
3846;DHT22;1938;50.812;7.738;2022-12-07T00:31:26;2.30;99.90
3846;DHT22;1938;50.812;7.738;2022-12-07T00:33:51;2.30;99.90
3846;DHT22;1938;50.812;7.738;2022-12-07T00:36:20;2.40;99.90
3846;DHT22;1938;50.812;7.738;2022-12-07T00:38:46;2.30;99.90
3846;DHT22;1938;50.812;7.738;2022-12-07T00:41:17;2.40;99.90
3846;DHT22;1938;50.812;7.738;2022-12-07T00:43:44;2.40;99.90
3846;DHT22;1938;50.812;7.738;2022-12-07T00:46:11;2.40;99.90
3846;DHT22;1938;50.812;7.738;2022-12-07T00:48:37;2.50;99.90
3846;DHT22;1938;50.812;7.738;2022-12-07T00:51:03;2.50;99.90
3846;DHT22;1938;50.812;7.738;2022-12-07T00:53:30;2.50;99.90
3846;DHT22;1938;50.812;7.738;2022-12-07T00:55:56;2.50;99.90
3846;DHT22;1938;50.812;7.738;2022-12-07T00:58:23;2.50;99.90
3846;DHT22;1938;50.812;7.738;2022-12-07T01:00:49;2.50;99.90
3846;DHT22;1938;50.812;7.738;2022-12-07T01:03:15;2.50;99.90
3846;DHT22;1938;50.812;7.738;2022-12-07T01:05:52;2.40;99.90
3846;DHT22;1938;50.812;7.738;2022-12-07T01:08:18;2.40;99.90
3846;DHT22;1938;50.812;7.738;2022-12-07T01:10:44;2.50;99.90
3846;DHT22;1938;50.812;7.738;2022-12-07T01:13:09;2.50;99.90
3846;DHT22;1938;50.812;7.738;2022-12-07T01:15:42;2.50;99.90
3846;DHT22;1938;50.812;7.738;2022-12-07T01:18:08;2.50;99.90
3846;DHT22;1938;50.812;7.738;2022-12-07T01:20:34;2.50;99.90
3846;DHT22;1938;50.812;7.738;2022-12-07T01:23:00;2.50;99.90
3846;DHT22;1938;50.812;7.738;2022-12-07T01:25:26;2.50;99.90
3846;DHT22;1938;50.812;7.738;2022-12-07T01:27:52;2.50;99.90
3846;DHT22;1938;50.812;7.738;2022-12-07T01:30:17;2.50;99.90
3846;DHT22;1938;50.812;7.738;2022-12-07T01:32:44;2.60;99.90
3846;DHT22;1938;50.812;7.738;2022-12-07T01:35:09;2.60;99.90
3846;DHT22;1938;50.812;7.738;2022-12-07T01:37:36;2.60;99.90
3846;DHT22;1938;50.812;7.738;2022-12-07T01:40:06;2.60;99.90
3846;DHT22;1938;50.812;7.738;2022-12-07T01:42:32;2.70;99.90
3846;DHT22;1938;50.812;7.738;2022-12-07T01:45:36;2.60;99.90
3846;DHT22;1938;50.812;7.738;2022-12-07T01:48:03;2.60;99.90
3846;DHT22;1938;50.812;7.738;2022-12-07T01:50:29;2.60;99.90
3846;DHT22;1938;50.812;7.738;2022-12-07T01:52:59;2.70;99.90
3846;DHT22;1938;50.812;7.738;2022-12-07T01:55:25;2.70;99.90
3846;DHT22;1938;50.812;7.738;2022-12-07T01:57:53;2.70;99.90
3846;DHT22;1938;50.812;7.738;2022-12-07T02:00:20;2.70;99.90
3846;DHT22;1938;50.812;7.738;2022-12-07T02:03:00;2.80;99.90
3846;DHT22;1938;50.812;7.738;2022-12-07T02:05:29;2.80;99.90
3846;DHT22;1938;50.812;7.738;2022-12-07T02:07:55;2.80;99.90
3846;DHT22;1938;50.812;7.738;2022-12-07T02:10:25;2.80;99.90
3846;DHT22;1938;50.812;7.738;2022-12-07T02:15:52;2.80;99.90
3846;DHT22;1938;50.812;7.738;2022-12-07T02:18:48;2.90;99.90
3846;DHT22;1938;50.812;7.738;2022-12-07T02:29:40;2.70;99.90
3846;DHT22;1938;50.812;7.738;2022-12-07T02:34:52;2.70;99.90
3846;DHT22;1938;50.812;7.738;2022-12-07T02:40:04;2.60;99.90
3846;DHT22;1938;50.812;7.738;2022-12-07T02:42:36;2.60;99.90
3846;DHT22;1938;50.812;7.738;2022-12-07T02:45:04;2.70;99.90
3846;DHT22;1938;50.812;7.738;2022-12-07T02:47:31;2.80;99.90
3846;DHT22;1938;50.812;7.738;2022-12-07T02:49:59;2.80;99.90
3846;DHT22;1938;50.812;7.738;2022-12-07T02:52:27;2.80;99.90
3846;DHT22;1938;50.812;7.738;2022-12-07T02:54:52;2.80;99.90
3846;DHT22;1938;50.812;7.738;2022-12-07T03:00:24;2.50;99.90
3846;DHT22;1938;50.812;7.738;2022-12-07T03:02:58;2.60;99.90
3846;DHT22;1938;50.812;7.738;2022-12-07T03:05:40;2.90;99.90
3846;DHT22;1938;50.812;7.738;2022-12-07T03:11:03;3.00;99.90
3846;DHT22;1938;50.812;7.738;2022-12-07T03:13:43;2.90;99.90
3846;DHT22;1938;50.812;7.738;2022-12-07T03:19:00;3.00;99.90
3846;DHT22;1938;50.812;7.738;2022-12-07T03:21:32;3.00;99.90
3846;DHT22;1938;50.812;7.738;2022-12-07T03:24:03;3.00;99.90
3846;DHT22;1938;50.812;7.738;2022-12-07T03:26:34;3.00;99.90
3846;DHT22;1938;50.812;7.738;2022-12-07T03:29:07;3.00;99.90
3846;DHT22;1938;50.812;7.738;2022-12-07T03:31:43;2.90;99.90
3846;DHT22;1938;50.812;7.738;2022-12-07T03:34:34;3.00;99.90
3846;DHT22;1938;50.812;7.738;2022-12-07T03:37:28;2.90;99.90
3846;DHT22;1938;50.812;7.738;2022-12-07T03:40:06;3.00;99.90
3846;DHT22;1938;50.812;7.738;2022-12-07T03:42:33;3.00;99.90
3846;DHT22;1938;50.812;7.738;2022-12-07T03:45:01;3.10;99.90
3846;DHT22;1938;50.812;7.738;2022-12-07T03:47:35;3.00;99.90
3846;DHT22;1938;50.812;7.738;2022-12-07T03:50:28;3.00;99.90
3846;DHT22;1938;50.812;7.738;2022-12-07T03:53:15;3.00;99.90
3846;DHT22;1938;50.812;7.738;2022-12-07T03:55:46;3.00;99.90
3846;DHT22;1938;50.812;7.738;2022-12-07T03:58:18;3.10;99.90
3846;DHT22;1938;50.812;7.738;2022-12-07T04:00:45;3.00;99.90
3846;DHT22;1938;50.812;7.738;2022-12-07T04:03:11;3.00;99.90
3846;DHT22;1938;50.812;7.738;2022-12-07T04:05:37;3.00;99.90
3846;DHT22;1938;50.812;7.738;2022-12-07T04:08:03;3.10;99.90
3846;DHT22;1938;50.812;7.738;2022-12-07T04:10:29;3.00;99.90
3846;DHT22;1938;50.812;7.738;2022-12-07T04:12:54;3.00;99.90
3846;DHT22;1938;50.812;7.738;2022-12-07T04:15:21;3.10;99.90
3846;DHT22;1938;50.812;7.738;2022-12-07T04:17:48;3.00;99.90
3846;DHT22;1938;50.812;7.738;2022-12-07T04:20:13;3.00;99.90
3846;DHT22;1938;50.812;7.738;2022-12-07T04:22:39;3.00;99.90
3846;DHT22;1938;50.812;7.738;2022-12-07T04:25:06;3.00;99.90
3846;DHT22;1938;50.812;7.738;2022-12-07T04:27:32;3.00;99.90
3846;DHT22;1938;50.812;7.738;2022-12-07T04:29:57;3.00;99.90
3846;DHT22;1938;50.812;7.738;2022-12-07T04:32:24;3.00;99.90
3846;DHT22;1938;50.812;7.738;2022-12-07T04:34:50;3.00;99.90
3846;DHT22;1938;50.812;7.738;2022-12-07T04:37:15;3.10;99.90
3846;DHT22;1938;50.812;7.738;2022-12-07T04:39:41;3.00;99.90
3846;DHT22;1938;50.812;7.738;2022-12-07T04:42:07;3.00;99.90
3846;DHT22;1938;50.812;7.738;2022-12-07T04:44:32;3.00;99.90
3846;DHT22;1938;50.812;7.738;2022-12-07T04:46:59;3.00;99.90
3846;DHT22;1938;50.812;7.738;2022-12-07T04:49:24;3.00;99.90
3846;DHT22;1938;50.812;7.738;2022-12-07T04:51:51;3.00;99.90
3846;DHT22;1938;50.812;7.738;2022-12-07T04:54:17;3.10;99.90
3846;DHT22;1938;50.812;7.738;2022-12-07T04:56:44;3.10;99.90
3846;DHT22;1938;50.812;7.738;2022-12-07T04:59:11;3.10;99.90
3846;DHT22;1938;50.812;7.738;2022-12-07T05:01:37;3.00;99.90
3846;DHT22;1938;50.812;7.738;2022-12-07T05:04:03;3.10;99.90
3846;DHT22;1938;50.812;7.738;2022-12-07T05:06:28;3.20;99.90
3846;DHT22;1938;50.812;7.738;2022-12-07T05:08:54;3.30;99.90
3846;DHT22;1938;50.812;7.738;2022-12-07T05:11:19;3.40;99.90
3846;DHT22;1938;50.812;7.738;2022-12-07T05:14:17;3.50;99.90
3846;DHT22;1938;50.812;7.738;2022-12-07T05:16:44;3.50;99.90
3846;DHT22;1938;50.812;7.738;2022-12-07T05:19:10;3.50;99.90
3846;DHT22;1938;50.812;7.738;2022-12-07T05:21:37;3.50;99.90
3846;DHT22;1938;50.812;7.738;2022-12-07T05:24:03;3.50;99.90
3846;DHT22;1938;50.812;7.738;2022-12-07T05:26:29;3.30;99.90
3846;DHT22;1938;50.812;7.738;2022-12-07T05:28:55;3.20;99.90
3846;DHT22;1938;50.812;7.738;2022-12-07T05:31:22;3.30;99.90
3846;DHT22;1938;50.812;7.738;2022-12-07T05:33:48;3.30;99.90
3846;DHT22;1938;50.812;7.738;2022-12-07T05:36:14;3.30;99.90
3846;DHT22;1938;50.812;7.738;2022-12-07T05:38:40;3.30;99.90
3846;DHT22;1938;50.812;7.738;2022-12-07T05:41:07;3.30;99.90
3846;DHT22;1938;50.812;7.738;2022-12-07T05:43:53;3.40;99.90
3846;DHT22;1938;50.812;7.738;2022-12-07T05:46:18;3.30;99.90
3846;DHT22;1938;50.812;7.738;2022-12-07T05:48:45;3.10;99.90
3846;DHT22;1938;50.812;7.738;2022-12-07T05:51:10;3.10;99.90
3846;DHT22;1938;50.812;7.738;2022-12-07T05:53:37;3.10;99.90
3846;DHT22;1938;50.812;7.738;2022-12-07T05:56:03;3.30;99.90
3846;DHT22;1938;50.812;7.738;2022-12-07T05:58:28;3.10;99.90
3846;DHT22;1938;50.812;7.738;2022-12-07T06:01:13;3.00;99.90
3846;DHT22;1938;50.812;7.738;2022-12-07T06:03:38;3.00;99.90
3846;DHT22;1938;50.812;7.738;2022-12-07T06:06:04;2.90;99.90
3846;DHT22;1938;50.812;7.738;2022-12-07T06:08:30;2.90;99.90
3846;DHT22;1938;50.812;7.738;2022-12-07T06:10:56;2.90;99.90
3846;DHT22;1938;50.812;7.738;2022-12-07T06:13:40;2.90;99.90
3846;DHT22;1938;50.812;7.738;2022-12-07T06:16:06;3.00;99.90
3846;DHT22;1938;50.812;7.738;2022-12-07T06:18:31;3.10;99.90
3846;DHT22;1938;50.812;7.738;2022-12-07T06:20:57;3.00;99.90
3846;DHT22;1938;50.812;7.738;2022-12-07T06:23:22;3.00;99.90
3846;DHT22;1938;50.812;7.738;2022-12-07T06:25:48;3.00;99.90
3846;DHT22;1938;50.812;7.738;2022-12-07T06:28:14;2.90;99.90
3846;DHT22;1938;50.812;7.738;2022-12-07T06:30:39;2.80;99.90
3846;DHT22;1938;50.812;7.738;2022-12-07T06:33:05;2.80;99.90
3846;DHT22;1938;50.812;7.738;2022-12-07T06:35:32;2.80;99.90
3846;DHT22;1938;50.812;7.738;2022-12-07T06:37:58;2.90;99.90
3846;DHT22;1938;50.812;7.738;2022-12-07T06:40:23;3.10;99.90
3846;DHT22;1938;50.812;7.738;2022-12-07T06:42:49;2.90;99.90
3846;DHT22;1938;50.812;7.738;2022-12-07T06:45:14;2.80;99.90
3846;DHT22;1938;50.812;7.738;2022-12-07T06:47:40;2.70;99.90
3846;DHT22;1938;50.812;7.738;2022-12-07T06:50:06;2.70;99.90
3846;DHT22;1938;50.812;7.738;2022-12-07T06:52:33;2.60;99.90
3846;DHT22;1938;50.812;7.738;2022-12-07T06:54:58;2.70;99.90
3846;DHT22;1938;50.812;7.738;2022-12-07T06:57:24;2.80;99.90
3846;DHT22;1938;50.812;7.738;2022-12-07T06:59:50;2.80;99.90
3846;DHT22;1938;50.812;7.738;2022-12-07T07:02:16;2.90;99.90
3846;DHT22;1938;50.812;7.738;2022-12-07T07:04:42;3.00;99.90
3846;DHT22;1938;50.812;7.738;2022-12-07T07:07:07;3.10;99.90
3846;DHT22;1938;50.812;7.738;2022-12-07T07:09:33;3.30;99.90
3846;DHT22;1938;50.812;7.738;2022-12-07T07:11:58;3.30;99.90
3846;DHT22;1938;50.812;7.738;2022-12-07T07:14:24;3.40;99.90
3846;DHT22;1938;50.812;7.738;2022-12-07T07:16:49;3.50;99.90
3846;DHT22;1938;50.812;7.738;2022-12-07T07:19:15;3.50;99.90
3846;DHT22;1938;50.812;7.738;2022-12-07T07:21:41;3.50;99.90
3846;DHT22;1938;50.812;7.738;2022-12-07T07:24:07;3.60;99.90
3846;DHT22;1938;50.812;7.738;2022-12-07T07:26:33;3.60;99.90
3846;DHT22;1938;50.812;7.738;2022-12-07T07:28:58;3.60;99.90
3846;DHT22;1938;50.812;7.738;2022-12-07T07:31:24;3.60;99.90
3846;DHT22;1938;50.812;7.738;2022-12-07T07:33:49;3.60;99.90
3846;DHT22;1938;50.812;7.738;2022-12-07T07:36:15;3.60;99.90
3846;DHT22;1938;50.812;7.738;2022-12-07T07:38:40;3.60;99.90
3846;DHT22;1938;50.812;7.738;2022-12-07T07:41:07;3.60;99.90
3846;DHT22;1938;50.812;7.738;2022-12-07T07:43:33;3.60;99.90
3846;DHT22;1938;50.812;7.738;2022-12-07T07:45:58;3.60;99.90
3846;DHT22;1938;50.812;7.738;2022-12-07T07:48:24;3.60;99.90
3846;DHT22;1938;50.812;7.738;2022-12-07T07:50:51;3.60;99.90
3846;DHT22;1938;50.812;7.738;2022-12-07T07:53:16;3.70;99.90
3846;DHT22;1938;50.812;7.738;2022-12-07T07:55:49;3.70;99.90
3846;DHT22;1938;50.812;7.738;2022-12-07T07:58:15;3.70;99.90
3846;DHT22;1938;50.812;7.738;2022-12-07T08:00:40;3.80;99.90
3846;DHT22;1938;50.812;7.738;2022-12-07T08:03:06;3.80;99.90
3846;DHT22;1938;50.812;7.738;2022-12-07T08:05:31;3.80;99.90
3846;DHT22;1938;50.812;7.738;2022-12-07T08:07:57;3.80;99.90
3846;DHT22;1938;50.812;7.738;2022-12-07T08:10:23;3.60;99.90
3846;DHT22;1938;50.812;7.738;2022-12-07T08:12:48;3.30;99.90
3846;DHT22;1938;50.812;7.738;2022-12-07T08:15:52;3.20;99.90
3846;DHT22;1938;50.812;7.738;2022-12-07T08:18:19;2.90;99.90
3846;DHT22;1938;50.812;7.738;2022-12-07T08:20:44;2.90;99.90
3846;DHT22;1938;50.812;7.738;2022-12-07T08:23:10;2.80;99.90
3846;DHT22;1938;50.812;7.738;2022-12-07T08:25:37;2.80;99.90
3846;DHT22;1938;50.812;7.738;2022-12-07T08:28:03;2.80;99.90
3846;DHT22;1938;50.812;7.738;2022-12-07T08:30:29;2.80;99.90
3846;DHT22;1938;50.812;7.738;2022-12-07T08:32:55;2.90;99.90
3846;DHT22;1938;50.812;7.738;2022-12-07T08:35:21;3.00;99.90
3846;DHT22;1938;50.812;7.738;2022-12-07T08:37:47;2.90;99.90
3846;DHT22;1938;50.812;7.738;2022-12-07T08:40:13;2.90;99.90
3846;DHT22;1938;50.812;7.738;2022-12-07T08:42:42;2.90;99.90
3846;DHT22;1938;50.812;7.738;2022-12-07T08:45:10;2.90;99.90
3846;DHT22;1938;50.812;7.738;2022-12-07T08:47:57;2.90;99.90
3846;DHT22;1938;50.812;7.738;2022-12-07T08:50:25;2.80;99.90
3846;DHT22;1938;50.812;7.738;2022-12-07T08:52:53;2.80;99.90
3846;DHT22;1938;50.812;7.738;2022-12-07T08:55:20;2.80;99.90
3846;DHT22;1938;50.812;7.738;2022-12-07T08:57:47;2.90;99.90
3846;DHT22;1938;50.812;7.738;2022-12-07T09:00:13;2.80;99.90
3846;DHT22;1938;50.812;7.738;2022-12-07T09:02:39;2.80;99.90
3846;DHT22;1938;50.812;7.738;2022-12-07T09:05:05;2.80;99.90
3846;DHT22;1938;50.812;7.738;2022-12-07T09:07:32;2.80;99.90
3846;DHT22;1938;50.812;7.738;2022-12-07T09:09:58;2.90;99.90
3846;DHT22;1938;50.812;7.738;2022-12-07T09:12:24;3.00;99.90
3846;DHT22;1938;50.812;7.738;2022-12-07T09:14:49;3.00;99.90
3846;DHT22;1938;50.812;7.738;2022-12-07T09:17:15;3.00;99.90
3846;DHT22;1938;50.812;7.738;2022-12-07T09:19:40;3.00;99.90
3846;DHT22;1938;50.812;7.738;2022-12-07T09:22:08;3.00;99.90
3846;DHT22;1938;50.812;7.738;2022-12-07T09:24:34;3.00;99.90
3846;DHT22;1938;50.812;7.738;2022-12-07T09:26:59;2.90;99.90
3846;DHT22;1938;50.812;7.738;2022-12-07T09:29:25;3.00;99.90
3846;DHT22;1938;50.812;7.738;2022-12-07T09:31:51;2.90;99.90
3846;DHT22;1938;50.812;7.738;2022-12-07T09:34:17;2.90;99.90
3846;DHT22;1938;50.812;7.738;2022-12-07T09:36:43;2.90;99.90
3846;DHT22;1938;50.812;7.738;2022-12-07T09:39:09;2.90;99.90
3846;DHT22;1938;50.812;7.738;2022-12-07T09:41:39;3.00;99.90
3846;DHT22;1938;50.812;7.738;2022-12-07T09:44:09;3.00;99.90
3846;DHT22;1938;50.812;7.738;2022-12-07T09:46:38;2.90;99.90
3846;DHT22;1938;50.812;7.738;2022-12-07T09:49:04;2.90;99.90
3846;DHT22;1938;50.812;7.738;2022-12-07T09:51:31;2.90;99.90
3846;DHT22;1938;50.812;7.738;2022-12-07T09:53:57;2.90;99.90
3846;DHT22;1938;50.812;7.738;2022-12-07T09:56:24;2.80;99.90
3846;DHT22;1938;50.812;7.738;2022-12-07T09:58:58;2.80;99.90
3846;DHT22;1938;50.812;7.738;2022-12-07T10:01:28;2.90;99.90
3846;DHT22;1938;50.812;7.738;2022-12-07T10:03:59;3.00;99.90
3846;DHT22;1938;50.812;7.738;2022-12-07T10:06:26;3.10;99.90
3846;DHT22;1938;50.812;7.738;2022-12-07T10:08:51;3.00;99.90
3846;DHT22;1938;50.812;7.738;2022-12-07T10:11:18;3.00;99.90
3846;DHT22;1938;50.812;7.738;2022-12-07T10:13:49;3.00;99.90
3846;DHT22;1938;50.812;7.738;2022-12-07T10:18:50;3.20;99.90
3846;DHT22;1938;50.812;7.738;2022-12-07T10:21:18;3.50;99.90
3846;DHT22;1938;50.812;7.738;2022-12-07T10:23:59;3.40;99.90
3846;DHT22;1938;50.812;7.738;2022-12-07T10:28:58;3.80;99.90
3846;DHT22;1938;50.812;7.738;2022-12-07T10:31:24;4.10;99.90
3846;DHT22;1938;50.812;7.738;2022-12-07T10:33:53;4.40;99.90
3846;DHT22;1938;50.812;7.738;2022-12-07T10:36:33;4.70;99.90
3846;DHT22;1938;50.812;7.738;2022-12-07T10:39:02;4.80;99.90
3846;DHT22;1938;50.812;7.738;2022-12-07T10:41:30;5.00;99.90
3846;DHT22;1938;50.812;7.738;2022-12-07T10:43:57;5.20;99.90
3846;DHT22;1938;50.812;7.738;2022-12-07T10:52:39;5.80;99.90
3846;DHT22;1938;50.812;7.738;2022-12-07T10:55:21;6.00;99.90
3846;DHT22;1938;50.812;7.738;2022-12-07T11:12:11;6.40;99.90
3846;DHT22;1938;50.812;7.738;2022-12-07T11:14:51;6.50;99.90
3846;DHT22;1938;50.812;7.738;2022-12-07T11:20:41;6.20;99.90
3846;DHT22;1938;50.812;7.738;2022-12-07T11:23:40;6.10;99.90
3846;DHT22;1938;50.812;7.738;2022-12-07T11:26:33;5.90;99.90
3846;DHT22;1938;50.812;7.738;2022-12-07T11:32:00;5.80;99.90
3846;DHT22;1938;50.812;7.738;2022-12-07T11:37:36;5.70;99.90
3846;DHT22;1938;50.812;7.738;2022-12-07T11:40:24;5.50;99.90
3846;DHT22;1938;50.812;7.738;2022-12-07T11:42:59;5.00;99.90
3846;DHT22;1938;50.812;7.738;2022-12-07T11:45:30;4.60;99.90
3846;DHT22;1938;50.812;7.738;2022-12-07T11:50:36;4.10;99.90
3846;DHT22;1938;50.812;7.738;2022-12-07T11:53:05;3.90;99.90
3846;DHT22;1938;50.812;7.738;2022-12-07T11:55:56;3.80;99.90
3846;DHT22;1938;50.812;7.738;2022-12-07T11:58:40;3.80;99.90
3846;DHT22;1938;50.812;7.738;2022-12-07T12:03:48;4.00;99.90
3846;DHT22;1938;50.812;7.738;2022-12-07T12:06:15;3.90;99.90
3846;DHT22;1938;50.812;7.738;2022-12-07T12:08:47;4.00;99.90
3846;DHT22;1938;50.812;7.738;2022-12-07T12:17:07;4.00;99.90
3846;DHT22;1938;50.812;7.738;2022-12-07T12:22:40;4.20;99.90
3846;DHT22;1938;50.812;7.738;2022-12-07T12:25:24;4.20;99.90
3846;DHT22;1938;50.812;7.738;2022-12-07T12:27:52;4.10;99.90
3846;DHT22;1938;50.812;7.738;2022-12-07T12:30:35;3.90;99.90
3846;DHT22;1938;50.812;7.738;2022-12-07T12:33:20;3.60;99.90
3846;DHT22;1938;50.812;7.738;2022-12-07T12:46:57;3.40;99.90
3846;DHT22;1938;50.812;7.738;2022-12-07T12:54:32;3.40;99.90
3846;DHT22;1938;50.812;7.738;2022-12-07T13:12:59;3.00;99.90
3846;DHT22;1938;50.812;7.738;2022-12-07T13:18:03;2.60;99.90
3846;DHT22;1938;50.812;7.738;2022-12-07T13:20:50;2.50;99.90
3846;DHT22;1938;50.812;7.738;2022-12-07T13:23:26;2.50;99.90
3846;DHT22;1938;50.812;7.738;2022-12-07T13:31:25;2.90;99.90
3846;DHT22;1938;50.812;7.738;2022-12-07T13:33:55;2.80;99.90
3846;DHT22;1938;50.812;7.738;2022-12-07T13:36:26;2.80;99.90
3846;DHT22;1938;50.812;7.738;2022-12-07T13:38:58;2.90;99.90
3846;DHT22;1938;50.812;7.738;2022-12-07T13:41:28;3.10;99.90
3846;DHT22;1938;50.812;7.738;2022-12-07T13:44:03;3.20;99.90
3846;DHT22;1938;50.812;7.738;2022-12-07T13:46:44;3.10;99.90
3846;DHT22;1938;50.812;7.738;2022-12-07T13:49:29;2.90;99.90
3846;DHT22;1938;50.812;7.738;2022-12-07T13:52:13;2.80;99.90
3846;DHT22;1938;50.812;7.738;2022-12-07T13:55:32;2.80;99.90
3846;DHT22;1938;50.812;7.738;2022-12-07T13:57:35;2.80;99.90
3846;DHT22;1938;50.812;7.738;2022-12-07T14:00:03;2.70;99.90
3846;DHT22;1938;50.812;7.738;2022-12-07T14:02:32;2.70;99.90
3846;DHT22;1938;50.812;7.738;2022-12-07T14:05:14;2.80;99.90
3846;DHT22;1938;50.812;7.738;2022-12-07T14:07:55;2.90;99.90
3846;DHT22;1938;50.812;7.738;2022-12-07T14:10:29;2.90;99.90
3846;DHT22;1938;50.812;7.738;2022-12-07T14:12:55;2.80;99.90
3846;DHT22;1938;50.812;7.738;2022-12-07T14:15:32;2.80;99.90
3846;DHT22;1938;50.812;7.738;2022-12-07T14:17:59;2.80;99.90
3846;DHT22;1938;50.812;7.738;2022-12-07T14:23:02;2.70;99.90
3846;DHT22;1938;50.812;7.738;2022-12-07T14:25:48;2.60;99.90
3846;DHT22;1938;50.812;7.738;2022-12-07T14:28:40;2.70;99.90
3846;DHT22;1938;50.812;7.738;2022-12-07T14:31:22;2.60;99.90
3846;DHT22;1938;50.812;7.738;2022-12-07T14:33:49;2.60;99.90
3846;DHT22;1938;50.812;7.738;2022-12-07T14:36:15;2.60;99.90
3846;DHT22;1938;50.812;7.738;2022-12-07T14:38:41;2.60;99.90
3846;DHT22;1938;50.812;7.738;2022-12-07T14:41:12;2.60;99.90
3846;DHT22;1938;50.812;7.738;2022-12-07T14:43:58;2.60;99.90
3846;DHT22;1938;50.812;7.738;2022-12-07T14:46:23;2.60;99.90
3846;DHT22;1938;50.812;7.738;2022-12-07T14:48:50;2.60;99.90
3846;DHT22;1938;50.812;7.738;2022-12-07T14:51:16;2.60;99.90
3846;DHT22;1938;50.812;7.738;2022-12-07T14:53:44;2.50;99.90
3846;DHT22;1938;50.812;7.738;2022-12-07T14:56:11;2.50;99.90
3846;DHT22;1938;50.812;7.738;2022-12-07T14:58:37;2.50;99.90
3846;DHT22;1938;50.812;7.738;2022-12-07T15:01:02;2.50;99.90
3846;DHT22;1938;50.812;7.738;2022-12-07T15:03:28;2.50;99.90
3846;DHT22;1938;50.812;7.738;2022-12-07T15:05:55;2.50;99.90
3846;DHT22;1938;50.812;7.738;2022-12-07T15:08:20;2.60;99.90
3846;DHT22;1938;50.812;7.738;2022-12-07T15:10:46;2.60;99.90
3846;DHT22;1938;50.812;7.738;2022-12-07T15:13:11;2.60;99.90
3846;DHT22;1938;50.812;7.738;2022-12-07T15:15:55;2.60;99.90
3846;DHT22;1938;50.812;7.738;2022-12-07T15:18:22;2.60;99.90
3846;DHT22;1938;50.812;7.738;2022-12-07T15:20:48;2.60;99.90
3846;DHT22;1938;50.812;7.738;2022-12-07T15:23:14;2.60;99.90
3846;DHT22;1938;50.812;7.738;2022-12-07T15:25:41;2.70;99.90
3846;DHT22;1938;50.812;7.738;2022-12-07T15:28:07;2.70;99.90
3846;DHT22;1938;50.812;7.738;2022-12-07T15:30:32;2.70;99.90
3846;DHT22;1938;50.812;7.738;2022-12-07T15:32:58;2.70;99.90
3846;DHT22;1938;50.812;7.738;2022-12-07T15:35:23;2.60;99.90
3846;DHT22;1938;50.812;7.738;2022-12-07T15:37:49;2.60;99.90
3846;DHT22;1938;50.812;7.738;2022-12-07T15:40:15;2.70;99.90
3846;DHT22;1938;50.812;7.738;2022-12-07T15:42:40;2.70;99.90
3846;DHT22;1938;50.812;7.738;2022-12-07T15:45:07;2.70;99.90
3846;DHT22;1938;50.812;7.738;2022-12-07T15:47:39;2.80;99.90
3846;DHT22;1938;50.812;7.738;2022-12-07T15:50:08;2.80;99.90
3846;DHT22;1938;50.812;7.738;2022-12-07T15:52:35;2.80;99.90
3846;DHT22;1938;50.812;7.738;2022-12-07T15:55:01;2.80;99.90
3846;DHT22;1938;50.812;7.738;2022-12-07T15:57:34;2.90;99.90
3846;DHT22;1938;50.812;7.738;2022-12-07T16:00:00;2.80;99.90
3846;DHT22;1938;50.812;7.738;2022-12-07T16:02:26;2.90;99.90
3846;DHT22;1938;50.812;7.738;2022-12-07T16:04:52;2.90;99.90
3846;DHT22;1938;50.812;7.738;2022-12-07T16:07:18;3.00;99.90
3846;DHT22;1938;50.812;7.738;2022-12-07T16:09:45;2.90;99.90
3846;DHT22;1938;50.812;7.738;2022-12-07T16:12:12;2.90;99.90
3846;DHT22;1938;50.812;7.738;2022-12-07T16:14:38;2.90;99.90
3846;DHT22;1938;50.812;7.738;2022-12-07T16:17:04;2.90;99.90
3846;DHT22;1938;50.812;7.738;2022-12-07T16:19:31;2.90;99.90
3846;DHT22;1938;50.812;7.738;2022-12-07T16:21:56;2.90;99.90
3846;DHT22;1938;50.812;7.738;2022-12-07T16:24:23;2.90;99.90
3846;DHT22;1938;50.812;7.738;2022-12-07T16:26:49;3.00;99.90
3846;DHT22;1938;50.812;7.738;2022-12-07T16:29:15;3.00;99.90
3846;DHT22;1938;50.812;7.738;2022-12-07T16:31:41;3.10;99.90
3846;DHT22;1938;50.812;7.738;2022-12-07T16:34:08;3.20;99.90
3846;DHT22;1938;50.812;7.738;2022-12-07T16:36:34;3.20;99.90
3846;DHT22;1938;50.812;7.738;2022-12-07T16:39:00;3.30;99.90
3846;DHT22;1938;50.812;7.738;2022-12-07T16:41:25;3.30;99.90
3846;DHT22;1938;50.812;7.738;2022-12-07T16:43:51;3.40;99.90
3846;DHT22;1938;50.812;7.738;2022-12-07T16:46:16;3.40;99.90
3846;DHT22;1938;50.812;7.738;2022-12-07T16:48:42;3.40;99.90
3846;DHT22;1938;50.812;7.738;2022-12-07T16:51:11;3.40;99.90
3846;DHT22;1938;50.812;7.738;2022-12-07T16:53:39;3.50;99.90
3846;DHT22;1938;50.812;7.738;2022-12-07T16:56:13;3.50;99.90
3846;DHT22;1938;50.812;7.738;2022-12-07T16:58:40;3.60;99.90
3846;DHT22;1938;50.812;7.738;2022-12-07T17:01:17;3.60;99.90
3846;DHT22;1938;50.812;7.738;2022-12-07T17:03:43;3.60;99.90
3846;DHT22;1938;50.812;7.738;2022-12-07T17:06:21;3.60;99.90
3846;DHT22;1938;50.812;7.738;2022-12-07T17:08:48;3.60;99.90
3846;DHT22;1938;50.812;7.738;2022-12-07T17:11:17;3.60;99.90
3846;DHT22;1938;50.812;7.738;2022-12-07T17:13:43;3.60;99.90
3846;DHT22;1938;50.812;7.738;2022-12-07T17:16:28;3.60;99.90
3846;DHT22;1938;50.812;7.738;2022-12-07T17:18:54;3.60;99.90
3846;DHT22;1938;50.812;7.738;2022-12-07T17:21:20;3.60;99.90
3846;DHT22;1938;50.812;7.738;2022-12-07T17:23:46;3.60;99.90
3846;DHT22;1938;50.812;7.738;2022-12-07T17:26:15;3.60;99.90
3846;DHT22;1938;50.812;7.738;2022-12-07T17:28:41;3.50;99.90
3846;DHT22;1938;50.812;7.738;2022-12-07T17:31:09;3.50;99.90
3846;DHT22;1938;50.812;7.738;2022-12-07T17:33:35;3.50;99.90
3846;DHT22;1938;50.812;7.738;2022-12-07T17:36:09;3.50;99.90
3846;DHT22;1938;50.812;7.738;2022-12-07T17:38:35;3.50;99.90
3846;DHT22;1938;50.812;7.738;2022-12-07T17:41:09;3.40;99.90
3846;DHT22;1938;50.812;7.738;2022-12-07T17:43:35;3.40;99.90
3846;DHT22;1938;50.812;7.738;2022-12-07T17:46:06;3.40;99.90
3846;DHT22;1938;50.812;7.738;2022-12-07T17:48:32;3.40;99.90
3846;DHT22;1938;50.812;7.738;2022-12-07T17:51:01;3.40;99.90
3846;DHT22;1938;50.812;7.738;2022-12-07T17:53:49;3.40;99.90
3846;DHT22;1938;50.812;7.738;2022-12-07T17:56:16;3.20;99.90
3846;DHT22;1938;50.812;7.738;2022-12-07T17:58:42;2.80;99.90
3846;DHT22;1938;50.812;7.738;2022-12-07T18:01:08;2.60;99.90
3846;DHT22;1938;50.812;7.738;2022-12-07T18:03:34;2.50;99.90
3846;DHT22;1938;50.812;7.738;2022-12-07T18:06:00;2.50;99.90
3846;DHT22;1938;50.812;7.738;2022-12-07T18:08:27;2.50;99.90
3846;DHT22;1938;50.812;7.738;2022-12-07T18:10:59;2.50;99.90
3846;DHT22;1938;50.812;7.738;2022-12-07T18:13:25;2.50;99.90
3846;DHT22;1938;50.812;7.738;2022-12-07T18:16:04;2.40;99.90
3846;DHT22;1938;50.812;7.738;2022-12-07T18:18:30;2.50;99.90
3846;DHT22;1938;50.812;7.738;2022-12-07T18:20:56;2.80;99.90
3846;DHT22;1938;50.812;7.738;2022-12-07T18:23:21;2.60;99.90
3846;DHT22;1938;50.812;7.738;2022-12-07T18:25:48;2.50;99.90
3846;DHT22;1938;50.812;7.738;2022-12-07T18:28:13;2.40;99.90